sensor_id;sensor_type;location;lat;lon;timestamp;temperature;humidity
19359;DHT22;9815;52.334;20.890;2022-08-04T00:00:59;18.10;99.90
19359;DHT22;9815;52.334;20.890;2022-08-04T00:03:36;18.00;99.90
19359;DHT22;9815;52.334;20.890;2022-08-04T00:06:13;18.00;99.90
19359;DHT22;9815;52.334;20.890;2022-08-04T00:08:46;18.00;99.90
19359;DHT22;9815;52.334;20.890;2022-08-04T00:11:20;18.00;99.90
19359;DHT22;9815;52.334;20.890;2022-08-04T00:13:53;18.00;99.90
19359;DHT22;9815;52.334;20.890;2022-08-04T00:16:32;18.00;99.90
19359;DHT22;9815;52.334;20.890;2022-08-04T00:19:10;18.00;99.90
19359;DHT22;9815;52.334;20.890;2022-08-04T00:21:41;18.00;99.90
19359;DHT22;9815;52.334;20.890;2022-08-04T00:24:14;18.00;99.90
19359;DHT22;9815;52.334;20.890;2022-08-04T00:26:42;18.00;99.90
19359;DHT22;9815;52.334;20.890;2022-08-04T00:29:11;18.00;99.90
19359;DHT22;9815;52.334;20.890;2022-08-04T00:31:42;18.00;99.90
19359;DHT22;9815;52.334;20.890;2022-08-04T00:34:24;18.00;99.90
19359;DHT22;9815;52.334;20.890;2022-08-04T00:36:54;18.00;99.90
19359;DHT22;9815;52.334;20.890;2022-08-04T00:39:22;18.00;99.90
19359;DHT22;9815;52.334;20.890;2022-08-04T00:42:32;17.90;99.90
19359;DHT22;9815;52.334;20.890;2022-08-04T00:45:25;17.90;99.90
19359;DHT22;9815;52.334;20.890;2022-08-04T00:48:25;17.90;99.90
19359;DHT22;9815;52.334;20.890;2022-08-04T00:51:05;17.80;99.90
19359;DHT22;9815;52.334;20.890;2022-08-04T00:53:48;17.80;99.90
19359;DHT22;9815;52.334;20.890;2022-08-04T00:56:40;17.80;99.90
19359;DHT22;9815;52.334;20.890;2022-08-04T00:59:16;17.80;99.90
19359;DHT22;9815;52.334;20.890;2022-08-04T01:01:57;17.80;99.90
19359;DHT22;9815;52.334;20.890;2022-08-04T01:04:43;17.70;99.90
19359;DHT22;9815;52.334;20.890;2022-08-04T01:10:18;17.70;99.90
19359;DHT22;9815;52.334;20.890;2022-08-04T01:13:16;17.70;99.90
19359;DHT22;9815;52.334;20.890;2022-08-04T01:15:53;17.70;99.90
19359;DHT22;9815;52.334;20.890;2022-08-04T01:18:32;17.70;99.90
19359;DHT22;9815;52.334;20.890;2022-08-04T01:21:29;17.60;99.90
19359;DHT22;9815;52.334;20.890;2022-08-04T01:24:29;17.60;99.90
19359;DHT22;9815;52.334;20.890;2022-08-04T01:27:07;17.60;99.90
19359;DHT22;9815;52.334;20.890;2022-08-04T01:29:45;17.60;99.90
19359;DHT22;9815;52.334;20.890;2022-08-04T01:32:20;17.50;99.90
19359;DHT22;9815;52.334;20.890;2022-08-04T01:35:02;17.50;99.90
19359;DHT22;9815;52.334;20.890;2022-08-04T01:37:46;17.50;99.90
19359;DHT22;9815;52.334;20.890;2022-08-04T01:40:16;17.50;99.90
19359;DHT22;9815;52.334;20.890;2022-08-04T01:42:44;17.40;99.90
19359;DHT22;9815;52.334;20.890;2022-08-04T01:45:14;17.40;99.90
19359;DHT22;9815;52.334;20.890;2022-08-04T01:47:48;17.40;99.90
19359;DHT22;9815;52.334;20.890;2022-08-04T01:50:16;17.40;99.90
19359;DHT22;9815;52.334;20.890;2022-08-04T01:52:45;17.40;99.90
19359;DHT22;9815;52.334;20.890;2022-08-04T01:55:17;17.30;99.90
19359;DHT22;9815;52.334;20.890;2022-08-04T01:57:47;17.40;99.90
19359;DHT22;9815;52.334;20.890;2022-08-04T02:00:18;17.40;99.90
19359;DHT22;9815;52.334;20.890;2022-08-04T02:02:48;17.40;99.90
19359;DHT22;9815;52.334;20.890;2022-08-04T02:05:19;17.40;99.90
19359;DHT22;9815;52.334;20.890;2022-08-04T02:08:00;17.40;99.90
19359;DHT22;9815;52.334;20.890;2022-08-04T02:10:34;17.40;99.90
19359;DHT22;9815;52.334;20.890;2022-08-04T02:13:15;17.50;99.90
19359;DHT22;9815;52.334;20.890;2022-08-04T02:15:55;17.50;99.90
19359;DHT22;9815;52.334;20.890;2022-08-04T02:18:30;17.50;99.90
19359;DHT22;9815;52.334;20.890;2022-08-04T02:21:01;17.50;99.90
19359;DHT22;9815;52.334;20.890;2022-08-04T02:23:34;17.50;99.90
19359;DHT22;9815;52.334;20.890;2022-08-04T02:26:05;17.60;99.90
19359;DHT22;9815;52.334;20.890;2022-08-04T02:28:53;17.60;99.90
19359;DHT22;9815;52.334;20.890;2022-08-04T02:31:31;17.60;99.90
19359;DHT22;9815;52.334;20.890;2022-08-04T02:34:05;17.60;99.90
19359;DHT22;9815;52.334;20.890;2022-08-04T02:36:36;17.60;99.90
19359;DHT22;9815;52.334;20.890;2022-08-04T02:39:06;17.60;99.90
19359;DHT22;9815;52.334;20.890;2022-08-04T02:41:35;17.60;99.90
19359;DHT22;9815;52.334;20.890;2022-08-04T02:44:05;17.60;99.90
19359;DHT22;9815;52.334;20.890;2022-08-04T02:46:37;17.60;99.90
19359;DHT22;9815;52.334;20.890;2022-08-04T02:49:06;17.50;99.90
19359;DHT22;9815;52.334;20.890;2022-08-04T02:51:36;17.50;99.90
19359;DHT22;9815;52.334;20.890;2022-08-04T02:54:06;17.50;99.90
19359;DHT22;9815;52.334;20.890;2022-08-04T02:56:36;17.40;99.90
19359;DHT22;9815;52.334;20.890;2022-08-04T02:59:05;17.40;99.90
19359;DHT22;9815;52.334;20.890;2022-08-04T03:01:35;17.40;99.90
19359;DHT22;9815;52.334;20.890;2022-08-04T03:04:34;17.40;99.90
19359;DHT22;9815;52.334;20.890;2022-08-04T03:07:35;17.50;99.90
19359;DHT22;9815;52.334;20.890;2022-08-04T03:10:38;17.40;99.90
19359;DHT22;9815;52.334;20.890;2022-08-04T03:13:34;17.40;99.90
19359;DHT22;9815;52.334;20.890;2022-08-04T03:19:46;17.50;99.90
19359;DHT22;9815;52.334;20.890;2022-08-04T03:22:34;17.50;99.90
19359;DHT22;9815;52.334;20.890;2022-08-04T03:25:52;17.40;99.90
19359;DHT22;9815;52.334;20.890;2022-08-04T03:28:57;17.40;99.90
19359;DHT22;9815;52.334;20.890;2022-08-04T03:34:48;17.50;99.90
19359;DHT22;9815;52.334;20.890;2022-08-04T03:37:38;17.50;99.90
19359;DHT22;9815;52.334;20.890;2022-08-04T03:40:34;17.50;99.90
19359;DHT22;9815;52.334;20.890;2022-08-04T03:43:46;17.60;99.90
19359;DHT22;9815;52.334;20.890;2022-08-04T03:46:49;17.60;99.90
19359;DHT22;9815;52.334;20.890;2022-08-04T03:52:42;17.70;99.90
19359;DHT22;9815;52.334;20.890;2022-08-04T03:56:07;17.70;99.90
19359;DHT22;9815;52.334;20.890;2022-08-04T03:58:51;17.80;99.90
19359;DHT22;9815;52.334;20.890;2022-08-04T04:01:39;17.80;99.90
19359;DHT22;9815;52.334;20.890;2022-08-04T04:04:59;17.80;99.90
19359;DHT22;9815;52.334;20.890;2022-08-04T04:08:19;17.80;99.90
19359;DHT22;9815;52.334;20.890;2022-08-04T04:11:16;17.80;99.90
19359;DHT22;9815;52.334;20.890;2022-08-04T04:14:09;17.80;99.90
19359;DHT22;9815;52.334;20.890;2022-08-04T04:17:03;17.90;99.90
19359;DHT22;9815;52.334;20.890;2022-08-04T04:19:47;17.90;99.90
19359;DHT22;9815;52.334;20.890;2022-08-04T04:25:33;18.00;99.90
19359;DHT22;9815;52.334;20.890;2022-08-04T04:31:36;18.10;99.90
19359;DHT22;9815;52.334;20.890;2022-08-04T04:34:20;18.10;99.90
19359;DHT22;9815;52.334;20.890;2022-08-04T04:37:00;18.20;99.90
19359;DHT22;9815;52.334;20.890;2022-08-04T04:39:42;18.30;99.90
19359;DHT22;9815;52.334;20.890;2022-08-04T04:42:37;18.30;99.90
19359;DHT22;9815;52.334;20.890;2022-08-04T04:45:20;18.40;99.90
19359;DHT22;9815;52.334;20.890;2022-08-04T04:47:55;18.50;99.90
19359;DHT22;9815;52.334;20.890;2022-08-04T04:50:46;18.60;99.90
19359;DHT22;9815;52.334;20.890;2022-08-04T04:53:26;18.70;99.90
19359;DHT22;9815;52.334;20.890;2022-08-04T04:56:02;18.80;99.90
19359;DHT22;9815;52.334;20.890;2022-08-04T04:58:34;18.90;99.90
19359;DHT22;9815;52.334;20.890;2022-08-04T05:01:27;19.00;99.90
19359;DHT22;9815;52.334;20.890;2022-08-04T05:04:17;19.10;99.90
19359;DHT22;9815;52.334;20.890;2022-08-04T05:07:05;19.20;99.90
19359;DHT22;9815;52.334;20.890;2022-08-04T05:09:50;19.40;99.90
19359;DHT22;9815;52.334;20.890;2022-08-04T05:12:41;19.50;99.90
19359;DHT22;9815;52.334;20.890;2022-08-04T05:15:42;19.80;96.50
19359;DHT22;9815;52.334;20.890;2022-08-04T05:18:15;19.90;96.00
19359;DHT22;9815;52.334;20.890;2022-08-04T05:20:50;20.10;92.20
19359;DHT22;9815;52.334;20.890;2022-08-04T05:23:22;20.30;85.70
19359;DHT22;9815;52.334;20.890;2022-08-04T05:25:55;20.40;84.20
19359;DHT22;9815;52.334;20.890;2022-08-04T05:28:28;20.60;82.50
19359;DHT22;9815;52.334;20.890;2022-08-04T05:31:03;20.70;80.70
19359;DHT22;9815;52.334;20.890;2022-08-04T05:33:38;20.80;82.90
19359;DHT22;9815;52.334;20.890;2022-08-04T05:36:13;20.80;82.50
19359;DHT22;9815;52.334;20.890;2022-08-04T05:39:00;20.90;80.00
19359;DHT22;9815;52.334;20.890;2022-08-04T05:41:30;21.10;78.60
19359;DHT22;9815;52.334;20.890;2022-08-04T05:44:14;21.20;81.50
19359;DHT22;9815;52.334;20.890;2022-08-04T05:46:47;21.10;81.90
19359;DHT22;9815;52.334;20.890;2022-08-04T05:49:21;21.20;81.50
19359;DHT22;9815;52.334;20.890;2022-08-04T05:51:51;21.20;82.80
19359;DHT22;9815;52.334;20.890;2022-08-04T05:54:20;21.30;83.60
19359;DHT22;9815;52.334;20.890;2022-08-04T05:56:49;21.30;81.80
19359;DHT22;9815;52.334;20.890;2022-08-04T05:59:19;21.50;78.10
19359;DHT22;9815;52.334;20.890;2022-08-04T06:01:53;21.60;77.50
19359;DHT22;9815;52.334;20.890;2022-08-04T06:04:24;21.70;78.10
19359;DHT22;9815;52.334;20.890;2022-08-04T06:06:54;21.80;80.70
19359;DHT22;9815;52.334;20.890;2022-08-04T06:09:22;21.80;91.30
19359;DHT22;9815;52.334;20.890;2022-08-04T06:11:51;21.80;93.40
19359;DHT22;9815;52.334;20.890;2022-08-04T06:14:32;21.80;95.20
19359;DHT22;9815;52.334;20.890;2022-08-04T06:17:06;21.90;97.30
19359;DHT22;9815;52.334;20.890;2022-08-04T06:19:55;21.90;99.60
19359;DHT22;9815;52.334;20.890;2022-08-04T06:22:45;21.90;99.40
19359;DHT22;9815;52.334;20.890;2022-08-04T06:25:17;21.90;96.30
19359;DHT22;9815;52.334;20.890;2022-08-04T06:27:47;21.90;95.60
19359;DHT22;9815;52.334;20.890;2022-08-04T06:30:17;22.00;93.30
19359;DHT22;9815;52.334;20.890;2022-08-04T06:32:48;22.00;92.40
19359;DHT22;9815;52.334;20.890;2022-08-04T06:35:32;22.10;92.80
19359;DHT22;9815;52.334;20.890;2022-08-04T06:38:01;22.20;94.00
19359;DHT22;9815;52.334;20.890;2022-08-04T06:40:30;22.30;94.50
19359;DHT22;9815;52.334;20.890;2022-08-04T06:43:01;22.30;94.80
19359;DHT22;9815;52.334;20.890;2022-08-04T06:45:30;22.30;94.80
19359;DHT22;9815;52.334;20.890;2022-08-04T06:48:03;22.40;92.70
19359;DHT22;9815;52.334;20.890;2022-08-04T06:50:33;22.50;94.60
19359;DHT22;9815;52.334;20.890;2022-08-04T06:53:21;22.50;93.60
19359;DHT22;9815;52.334;20.890;2022-08-04T06:55:51;22.60;92.90
19359;DHT22;9815;52.334;20.890;2022-08-04T06:58:19;22.70;92.70
19359;DHT22;9815;52.334;20.890;2022-08-04T07:00:48;22.80;89.00
19359;DHT22;9815;52.334;20.890;2022-08-04T07:03:19;22.80;85.80
19359;DHT22;9815;52.334;20.890;2022-08-04T07:05:48;22.90;86.40
19359;DHT22;9815;52.334;20.890;2022-08-04T07:08:18;23.00;91.70
19359;DHT22;9815;52.334;20.890;2022-08-04T07:10:47;23.00;86.00
19359;DHT22;9815;52.334;20.890;2022-08-04T07:13:17;23.00;85.80
19359;DHT22;9815;52.334;20.890;2022-08-04T07:15:46;23.20;79.20
19359;DHT22;9815;52.334;20.890;2022-08-04T07:18:15;23.30;76.50
19359;DHT22;9815;52.334;20.890;2022-08-04T07:20:46;23.40;81.80
19359;DHT22;9815;52.334;20.890;2022-08-04T07:23:16;23.40;82.80
19359;DHT22;9815;52.334;20.890;2022-08-04T07:25:50;23.50;86.00
19359;DHT22;9815;52.334;20.890;2022-08-04T07:31:35;23.70;75.60
19359;DHT22;9815;52.334;20.890;2022-08-04T07:34:03;23.80;81.00
19359;DHT22;9815;52.334;20.890;2022-08-04T07:36:51;23.90;81.30
19359;DHT22;9815;52.334;20.890;2022-08-04T07:39:23;24.00;79.80
19359;DHT22;9815;52.334;20.890;2022-08-04T07:41:56;24.10;73.50
19359;DHT22;9815;52.334;20.890;2022-08-04T07:44:28;24.10;83.50
19359;DHT22;9815;52.334;20.890;2022-08-04T07:46:57;24.20;80.70
19359;DHT22;9815;52.334;20.890;2022-08-04T07:49:25;24.30;74.30
19359;DHT22;9815;52.334;20.890;2022-08-04T07:52:15;24.40;70.80
19359;DHT22;9815;52.334;20.890;2022-08-04T07:54:43;24.80;73.10
19359;DHT22;9815;52.334;20.890;2022-08-04T07:57:12;25.20;63.10
19359;DHT22;9815;52.334;20.890;2022-08-04T08:00:01;25.80;60.70
19359;DHT22;9815;52.334;20.890;2022-08-04T08:02:37;26.50;55.30
19359;DHT22;9815;52.334;20.890;2022-08-04T08:05:08;27.20;52.80
19359;DHT22;9815;52.334;20.890;2022-08-04T08:07:38;27.60;56.70
19359;DHT22;9815;52.334;20.890;2022-08-04T08:10:21;28.10;49.60
19359;DHT22;9815;52.334;20.890;2022-08-04T08:12:50;28.30;47.80
19359;DHT22;9815;52.334;20.890;2022-08-04T08:15:19;28.40;47.30
19359;DHT22;9815;52.334;20.890;2022-08-04T08:17:48;28.50;47.50
19359;DHT22;9815;52.334;20.890;2022-08-04T08:20:27;28.60;47.10
19359;DHT22;9815;52.334;20.890;2022-08-04T08:22:58;28.50;46.40
19359;DHT22;9815;52.334;20.890;2022-08-04T08:25:29;28.50;47.90
19359;DHT22;9815;52.334;20.890;2022-08-04T08:27:57;28.60;46.60
19359;DHT22;9815;52.334;20.890;2022-08-04T08:30:25;28.60;46.10
19359;DHT22;9815;52.334;20.890;2022-08-04T08:33:03;28.70;45.20
19359;DHT22;9815;52.334;20.890;2022-08-04T08:35:38;28.70;45.10
19359;DHT22;9815;52.334;20.890;2022-08-04T08:38:36;28.70;44.70
19359;DHT22;9815;52.334;20.890;2022-08-04T08:44:40;28.60;44.40
19359;DHT22;9815;52.334;20.890;2022-08-04T08:47:23;28.90;44.70
19359;DHT22;9815;52.334;20.890;2022-08-04T08:50:44;29.10;44.40
19359;DHT22;9815;52.334;20.890;2022-08-04T08:53:29;29.10;43.50
19359;DHT22;9815;52.334;20.890;2022-08-04T08:56:15;29.20;44.30
19359;DHT22;9815;52.334;20.890;2022-08-04T08:58:58;29.40;43.80
19359;DHT22;9815;52.334;20.890;2022-08-04T09:01:39;29.60;43.10
19359;DHT22;9815;52.334;20.890;2022-08-04T09:04:30;29.50;42.30
19359;DHT22;9815;52.334;20.890;2022-08-04T09:07:09;29.70;43.00
19359;DHT22;9815;52.334;20.890;2022-08-04T09:09:50;30.00;41.60
19359;DHT22;9815;52.334;20.890;2022-08-04T09:12:26;30.20;41.00
19359;DHT22;9815;52.334;20.890;2022-08-04T09:15:03;30.40;40.70
19359;DHT22;9815;52.334;20.890;2022-08-04T09:17:36;30.60;40.90
19359;DHT22;9815;52.334;20.890;2022-08-04T09:20:14;30.90;40.50
19359;DHT22;9815;52.334;20.890;2022-08-04T09:22:49;31.00;40.00
19359;DHT22;9815;52.334;20.890;2022-08-04T09:25:22;31.30;41.30
19359;DHT22;9815;52.334;20.890;2022-08-04T09:27:53;31.30;42.10
19359;DHT22;9815;52.334;20.890;2022-08-04T09:30:28;31.50;38.50
19359;DHT22;9815;52.334;20.890;2022-08-04T09:33:09;31.50;39.20
19359;DHT22;9815;52.334;20.890;2022-08-04T09:35:56;31.50;40.00
19359;DHT22;9815;52.334;20.890;2022-08-04T09:38:37;31.90;39.70
19359;DHT22;9815;52.334;20.890;2022-08-04T09:41:15;31.90;37.40
19359;DHT22;9815;52.334;20.890;2022-08-04T09:44:17;31.80;38.50
19359;DHT22;9815;52.334;20.890;2022-08-04T09:47:13;32.10;38.80
19359;DHT22;9815;52.334;20.890;2022-08-04T09:49:49;32.00;38.90
19359;DHT22;9815;52.334;20.890;2022-08-04T09:52:26;31.80;37.50
19359;DHT22;9815;52.334;20.890;2022-08-04T09:55:05;32.10;38.70
19359;DHT22;9815;52.334;20.890;2022-08-04T09:57:44;31.50;39.70
19359;DHT22;9815;52.334;20.890;2022-08-04T10:00:17;30.60;42.90
19359;DHT22;9815;52.334;20.890;2022-08-04T10:03:08;30.50;42.60
19359;DHT22;9815;52.334;20.890;2022-08-04T10:05:59;30.60;40.30
19359;DHT22;9815;52.334;20.890;2022-08-04T10:08:58;30.60;41.50
19359;DHT22;9815;52.334;20.890;2022-08-04T10:11:39;31.30;41.00
19359;DHT22;9815;52.334;20.890;2022-08-04T10:14:36;31.70;40.20
19359;DHT22;9815;52.334;20.890;2022-08-04T10:17:25;32.10;38.70
19359;DHT22;9815;52.334;20.890;2022-08-04T10:20:06;31.90;38.10
19359;DHT22;9815;52.334;20.890;2022-08-04T10:22:37;31.80;40.20
19359;DHT22;9815;52.334;20.890;2022-08-04T10:25:37;31.80;39.20
19359;DHT22;9815;52.334;20.890;2022-08-04T10:28:30;32.10;39.30
19359;DHT22;9815;52.334;20.890;2022-08-04T10:31:06;32.30;38.00
19359;DHT22;9815;52.334;20.890;2022-08-04T10:33:42;32.30;37.80
19359;DHT22;9815;52.334;20.890;2022-08-04T10:36:14;32.40;38.90
19359;DHT22;9815;52.334;20.890;2022-08-04T10:38:51;32.80;37.20
19359;DHT22;9815;52.334;20.890;2022-08-04T10:41:29;32.50;36.90
19359;DHT22;9815;52.334;20.890;2022-08-04T10:44:10;32.30;36.50
19359;DHT22;9815;52.334;20.890;2022-08-04T10:46:46;32.50;38.20
19359;DHT22;9815;52.334;20.890;2022-08-04T10:49:21;32.10;37.50
19359;DHT22;9815;52.334;20.890;2022-08-04T10:51:54;32.40;38.20
19359;DHT22;9815;52.334;20.890;2022-08-04T10:54:30;32.50;38.90
19359;DHT22;9815;52.334;20.890;2022-08-04T10:57:06;32.90;37.20
19359;DHT22;9815;52.334;20.890;2022-08-04T10:59:39;33.10;38.00
19359;DHT22;9815;52.334;20.890;2022-08-04T11:02:24;33.30;35.30
19359;DHT22;9815;52.334;20.890;2022-08-04T11:04:58;33.20;37.20
19359;DHT22;9815;52.334;20.890;2022-08-04T11:07:29;33.10;34.50
19359;DHT22;9815;52.334;20.890;2022-08-04T11:10:00;33.10;37.30
19359;DHT22;9815;52.334;20.890;2022-08-04T11:12:28;32.90;35.30
19359;DHT22;9815;52.334;20.890;2022-08-04T11:15:03;32.80;37.70
19359;DHT22;9815;52.334;20.890;2022-08-04T11:17:39;33.10;34.60
19359;DHT22;9815;52.334;20.890;2022-08-04T11:20:14;32.50;35.70
19359;DHT22;9815;52.334;20.890;2022-08-04T11:23:06;31.90;36.20
19359;DHT22;9815;52.334;20.890;2022-08-04T11:25:41;31.70;39.40
19359;DHT22;9815;52.334;20.890;2022-08-04T11:28:22;31.50;40.30
19359;DHT22;9815;52.334;20.890;2022-08-04T11:30:56;31.40;38.20
19359;DHT22;9815;52.334;20.890;2022-08-04T11:33:34;31.70;38.20
19359;DHT22;9815;52.334;20.890;2022-08-04T11:36:13;32.30;37.30
19359;DHT22;9815;52.334;20.890;2022-08-04T11:38:46;32.70;38.00
19359;DHT22;9815;52.334;20.890;2022-08-04T11:41:21;32.70;37.40
19359;DHT22;9815;52.334;20.890;2022-08-04T11:43:52;32.70;35.30
19359;DHT22;9815;52.334;20.890;2022-08-04T11:46:36;32.60;37.80
19359;DHT22;9815;52.334;20.890;2022-08-04T11:49:14;32.60;39.00
19359;DHT22;9815;52.334;20.890;2022-08-04T11:51:44;33.00;35.50
19359;DHT22;9815;52.334;20.890;2022-08-04T11:54:14;32.60;35.90
19359;DHT22;9815;52.334;20.890;2022-08-04T11:56:42;32.20;38.30
19359;DHT22;9815;52.334;20.890;2022-08-04T11:59:11;32.40;37.80
19359;DHT22;9815;52.334;20.890;2022-08-04T12:01:49;32.60;38.20
19359;DHT22;9815;52.334;20.890;2022-08-04T12:04:34;32.50;38.30
19359;DHT22;9815;52.334;20.890;2022-08-04T12:07:12;32.70;37.00
19359;DHT22;9815;52.334;20.890;2022-08-04T12:10:23;32.60;37.60
19359;DHT22;9815;52.334;20.890;2022-08-04T12:13:14;32.60;35.70
19359;DHT22;9815;52.334;20.890;2022-08-04T12:15:55;32.90;35.70
19359;DHT22;9815;52.334;20.890;2022-08-04T12:18:31;33.40;36.10
19359;DHT22;9815;52.334;20.890;2022-08-04T12:21:04;32.80;36.10
19359;DHT22;9815;52.334;20.890;2022-08-04T12:23:39;32.80;38.10
19359;DHT22;9815;52.334;20.890;2022-08-04T12:26:14;32.70;37.40
19359;DHT22;9815;52.334;20.890;2022-08-04T12:28:46;32.90;37.10
19359;DHT22;9815;52.334;20.890;2022-08-04T12:31:40;33.00;35.30
19359;DHT22;9815;52.334;20.890;2022-08-04T12:34:15;33.10;37.10
19359;DHT22;9815;52.334;20.890;2022-08-04T12:36:50;33.00;36.40
19359;DHT22;9815;52.334;20.890;2022-08-04T12:39:23;32.90;35.70
19359;DHT22;9815;52.334;20.890;2022-08-04T12:42:00;32.70;36.90
19359;DHT22;9815;52.334;20.890;2022-08-04T12:44:31;32.90;36.20
19359;DHT22;9815;52.334;20.890;2022-08-04T12:47:06;33.10;37.60
19359;DHT22;9815;52.334;20.890;2022-08-04T12:49:58;33.30;37.40
19359;DHT22;9815;52.334;20.890;2022-08-04T12:52:32;33.30;34.40
19359;DHT22;9815;52.334;20.890;2022-08-04T12:55:24;33.70;33.60
19359;DHT22;9815;52.334;20.890;2022-08-04T12:57:54;33.60;34.50
19359;DHT22;9815;52.334;20.890;2022-08-04T13:00:26;33.20;35.90
19359;DHT22;9815;52.334;20.890;2022-08-04T13:03:05;33.00;37.30
19359;DHT22;9815;52.334;20.890;2022-08-04T13:05:38;32.50;36.20
19359;DHT22;9815;52.334;20.890;2022-08-04T13:08:09;32.10;35.40
19359;DHT22;9815;52.334;20.890;2022-08-04T13:10:39;31.80;37.10
19359;DHT22;9815;52.334;20.890;2022-08-04T13:13:15;32.40;37.00
19359;DHT22;9815;52.334;20.890;2022-08-04T13:15:54;32.70;37.70
19359;DHT22;9815;52.334;20.890;2022-08-04T13:18:25;33.00;37.00
19359;DHT22;9815;52.334;20.890;2022-08-04T13:21:15;33.30;35.70
19359;DHT22;9815;52.334;20.890;2022-08-04T13:24:10;33.50;36.20
19359;DHT22;9815;52.334;20.890;2022-08-04T13:26:59;33.40;34.60
19359;DHT22;9815;52.334;20.890;2022-08-04T13:29:33;33.50;33.80
19359;DHT22;9815;52.334;20.890;2022-08-04T13:32:24;33.50;32.90
19359;DHT22;9815;52.334;20.890;2022-08-04T13:34:55;33.40;36.40
19359;DHT22;9815;52.334;20.890;2022-08-04T13:37:28;33.10;34.90
19359;DHT22;9815;52.334;20.890;2022-08-04T13:39:59;33.20;33.70
19359;DHT22;9815;52.334;20.890;2022-08-04T13:42:32;33.60;33.20
19359;DHT22;9815;52.334;20.890;2022-08-04T13:45:03;33.60;34.10
19359;DHT22;9815;52.334;20.890;2022-08-04T13:47:35;33.40;35.40
19359;DHT22;9815;52.334;20.890;2022-08-04T13:50:14;33.20;35.00
19359;DHT22;9815;52.334;20.890;2022-08-04T13:52:44;33.10;35.30
19359;DHT22;9815;52.334;20.890;2022-08-04T13:55:25;32.80;36.50
19359;DHT22;9815;52.334;20.890;2022-08-04T13:58:04;33.00;36.40
19359;DHT22;9815;52.334;20.890;2022-08-04T14:00:41;33.10;35.60
19359;DHT22;9815;52.334;20.890;2022-08-04T14:03:15;33.10;34.40
19359;DHT22;9815;52.334;20.890;2022-08-04T14:06:24;32.90;32.80
19359;DHT22;9815;52.334;20.890;2022-08-04T14:08:54;33.30;33.40
19359;DHT22;9815;52.334;20.890;2022-08-04T14:11:33;33.10;34.40
19359;DHT22;9815;52.334;20.890;2022-08-04T14:14:24;32.90;33.00
19359;DHT22;9815;52.334;20.890;2022-08-04T14:17:01;33.10;35.60
19359;DHT22;9815;52.334;20.890;2022-08-04T14:19:49;32.70;34.70
19359;DHT22;9815;52.334;20.890;2022-08-04T14:22:29;32.80;35.60
19359;DHT22;9815;52.334;20.890;2022-08-04T14:25:00;32.60;35.70
19359;DHT22;9815;52.334;20.890;2022-08-04T14:27:41;32.60;36.60
19359;DHT22;9815;52.334;20.890;2022-08-04T14:30:24;32.50;35.60
19359;DHT22;9815;52.334;20.890;2022-08-04T14:32:58;32.30;35.40
19359;DHT22;9815;52.334;20.890;2022-08-04T14:35:56;32.40;36.80
19359;DHT22;9815;52.334;20.890;2022-08-04T14:38:45;32.40;35.00
19359;DHT22;9815;52.334;20.890;2022-08-04T14:41:14;32.30;34.90
19359;DHT22;9815;52.334;20.890;2022-08-04T14:43:46;32.30;36.60
19359;DHT22;9815;52.334;20.890;2022-08-04T14:46:15;32.50;37.00
19359;DHT22;9815;52.334;20.890;2022-08-04T14:49:06;32.50;37.20
19359;DHT22;9815;52.334;20.890;2022-08-04T14:51:38;32.50;35.60
19359;DHT22;9815;52.334;20.890;2022-08-04T14:54:09;32.70;33.80
19359;DHT22;9815;52.334;20.890;2022-08-04T14:56:51;32.80;32.90
19359;DHT22;9815;52.334;20.890;2022-08-04T14:59:21;32.90;33.50
19359;DHT22;9815;52.334;20.890;2022-08-04T15:01:52;32.60;33.90
19359;DHT22;9815;52.334;20.890;2022-08-04T15:04:27;32.00;34.40
19359;DHT22;9815;52.334;20.890;2022-08-04T15:06:58;32.00;35.90
19359;DHT22;9815;52.334;20.890;2022-08-04T15:09:31;32.40;34.50
19359;DHT22;9815;52.334;20.890;2022-08-04T15:12:01;32.30;33.70
19359;DHT22;9815;52.334;20.890;2022-08-04T15:14:31;32.90;33.90
19359;DHT22;9815;52.334;20.890;2022-08-04T15:17:04;32.90;33.80
19359;DHT22;9815;52.334;20.890;2022-08-04T15:19:54;32.80;33.30
19359;DHT22;9815;52.334;20.890;2022-08-04T15:22:23;32.80;34.00
19359;DHT22;9815;52.334;20.890;2022-08-04T15:24:52;32.40;34.10
19359;DHT22;9815;52.334;20.890;2022-08-04T15:27:23;32.20;36.20
19359;DHT22;9815;52.334;20.890;2022-08-04T15:29:56;32.30;36.00
19359;DHT22;9815;52.334;20.890;2022-08-04T15:35:01;32.00;34.20
19359;DHT22;9815;52.334;20.890;2022-08-04T15:37:38;31.90;35.50
19359;DHT22;9815;52.334;20.890;2022-08-04T15:40:12;31.90;37.20
19359;DHT22;9815;52.334;20.890;2022-08-04T15:42:45;31.60;36.10
19359;DHT22;9815;52.334;20.890;2022-08-04T15:45:21;32.30;33.30
19359;DHT22;9815;52.334;20.890;2022-08-04T15:48:30;32.40;36.70
19359;DHT22;9815;52.334;20.890;2022-08-04T15:51:00;31.90;35.20
19359;DHT22;9815;52.334;20.890;2022-08-04T15:53:31;31.90;35.80
19359;DHT22;9815;52.334;20.890;2022-08-04T15:56:44;31.60;37.20
19359;DHT22;9815;52.334;20.890;2022-08-04T15:59:56;31.60;36.20
19359;DHT22;9815;52.334;20.890;2022-08-04T16:02:45;31.10;37.40
19359;DHT22;9815;52.334;20.890;2022-08-04T16:05:31;31.00;37.50
19359;DHT22;9815;52.334;20.890;2022-08-04T16:08:15;30.80;39.90
19359;DHT22;9815;52.334;20.890;2022-08-04T16:10:48;30.50;40.40
19359;DHT22;9815;52.334;20.890;2022-08-04T16:13:18;30.00;41.00
19359;DHT22;9815;52.334;20.890;2022-08-04T16:15:52;29.70;40.50
19359;DHT22;9815;52.334;20.890;2022-08-04T16:18:40;29.30;41.20
19359;DHT22;9815;52.334;20.890;2022-08-04T16:21:20;29.00;42.40
19359;DHT22;9815;52.334;20.890;2022-08-04T16:24:08;28.80;42.30
19359;DHT22;9815;52.334;20.890;2022-08-04T16:26:51;28.60;42.70
19359;DHT22;9815;52.334;20.890;2022-08-04T16:29:41;28.40;42.20
19359;DHT22;9815;52.334;20.890;2022-08-04T16:32:20;28.10;42.60
19359;DHT22;9815;52.334;20.890;2022-08-04T16:34:55;28.00;43.00
19359;DHT22;9815;52.334;20.890;2022-08-04T16:37:31;28.00;45.90
19359;DHT22;9815;52.334;20.890;2022-08-04T16:40:29;27.90;43.40
19359;DHT22;9815;52.334;20.890;2022-08-04T16:43:07;27.70;45.50
19359;DHT22;9815;52.334;20.890;2022-08-04T16:45:44;27.50;45.10
19359;DHT22;9815;52.334;20.890;2022-08-04T16:48:13;27.50;46.00
19359;DHT22;9815;52.334;20.890;2022-08-04T16:50:52;27.40;47.40
19359;DHT22;9815;52.334;20.890;2022-08-04T16:53:22;27.30;45.90
19359;DHT22;9815;52.334;20.890;2022-08-04T16:56:14;27.20;45.00
19359;DHT22;9815;52.334;20.890;2022-08-04T16:58:45;27.10;44.90
19359;DHT22;9815;52.334;20.890;2022-08-04T17:01:20;27.10;45.80
19359;DHT22;9815;52.334;20.890;2022-08-04T17:04:02;27.00;47.90
19359;DHT22;9815;52.334;20.890;2022-08-04T17:06:39;26.90;48.10
19359;DHT22;9815;52.334;20.890;2022-08-04T17:09:10;26.80;47.80
19359;DHT22;9815;52.334;20.890;2022-08-04T17:11:39;26.70;48.00